Newton Hook, New York
Current Conditions -  °F | °C
As of 4:54 PM on Tuesday 21 Oct 2014 (Local Time) from KPSF Reporting Station
Light Rain Light Rain  
Wind Chill: 50°   Ceiling: 6000
Heat Index: 50°   Visibility: 10mi
Dew Point: 49°   Wind: 7mph
Humidity: 96%   Direction: 40°NE
Pressure: 29.9"   Gusts: NA
Location:  42.3826°N, 73.7611°W
Report Text: KPSF 212054Z AUTO 04006KT 10SM -RA BKN060 OVC070 10/09 A2990 RMK AO2 RAB06 SLP120 P0002 60005 T01000094 53000
Loading
Personal Weather Stations






























Interactive Weather Map
Tropical Storm Tracking
New forecast layout! Learn more

10-Day Weather Forecast

Advertisements
Track Severe Weather on mobile